createdAt,value
2023-04-21T00:00:40.565Z,5.57
2023-04-21T00:05:44.193Z,5.07
2023-04-21T00:10:48.188Z,5.95
2023-04-21T00:15:52.855Z,5.18
2023-04-21T00:20:56.362Z,4.80
2023-04-21T00:26:02.690Z,5.53
2023-04-21T00:31:07.923Z,4.82
2023-04-21T00:36:11.200Z,4.93
2023-04-21T00:41:14.387Z,5.45
2023-04-21T00:46:18.955Z,5.95
2023-04-21T00:51:22.720Z,4.32
2023-04-21T00:56:27.615Z,5.70
2023-04-21T01:01:34.316Z,4.40
2023-04-21T01:06:38.328Z,4.35
2023-04-21T01:11:41.797Z,5.22
2023-04-21T01:16:46.820Z,4.30
2023-04-21T01:21:51.603Z,4.57
2023-04-21T01:26:54.926Z,4.35
2023-04-21T01:31:58.175Z,4.30
2023-04-21T01:37:03.099Z,4.07
2023-04-21T01:42:06.466Z,4.55
2023-04-21T01:47:09.748Z,4.80
2023-04-21T01:52:14.451Z,4.10
2023-04-21T01:57:18.399Z,4.57
2023-04-21T02:02:21.947Z,4.28
2023-04-21T02:07:28.795Z,5.18
2023-04-21T02:12:32.013Z,4.50
2023-04-21T02:17:35.329Z,4.28
2023-04-21T02:22:40.323Z,4.75
2023-04-21T02:27:43.520Z,5.40
2023-04-21T02:32:46.907Z,5.15
2023-04-21T02:37:51.646Z,4.57
2023-04-21T02:42:54.797Z,4.78
2023-04-21T02:47:58.966Z,5.45
2023-04-21T02:53:03.646Z,4.82
2023-04-21T02:58:07.264Z,4.47
2023-04-21T03:03:11.036Z,4.38
2023-04-21T03:08:15.752Z,4.75
2023-04-21T03:13:19.126Z,4.05
2023-04-21T03:18:22.536Z,4.30
2023-04-21T03:23:28.466Z,4.35
2023-04-21T03:28:31.674Z,4.68
2023-04-21T03:33:34.934Z,4.43
2023-04-21T03:38:39.658Z,4.07
2023-04-21T03:43:42.972Z,4.68
2023-04-21T03:48:46.975Z,3.95
2023-04-21T03:53:51.641Z,4.45
2023-04-21T03:58:54.946Z,4.95
2023-04-21T04:03:58.390Z,4.50
2023-04-21T04:09:05.474Z,4.07
2023-04-21T04:14:08.804Z,4.50
2023-04-21T04:19:12.691Z,4.43
2023-04-21T04:24:17.247Z,3.90
2023-04-21T04:29:20.792Z,4.32
2023-04-21T04:34:24.566Z,4.60
2023-04-21T04:39:29.089Z,4.40
2023-04-21T04:44:34.060Z,4.60
2023-04-21T04:49:38.107Z,5.20
2023-04-21T04:54:42.737Z,4.60
2023-04-21T04:59:46.559Z,4.63
2023-04-21T05:04:50.431Z,4.53
2023-04-21T05:09:55.443Z,5.28
2023-04-21T05:14:58.904Z,4.93
2023-04-21T05:20:02.241Z,5.53
2023-04-21T05:25:07.669Z,4.38
2023-04-21T05:30:11.919Z,4.88
2023-04-21T05:35:15.207Z,4.95
2023-04-21T05:40:19.994Z,5.15
2023-04-21T05:45:23.255Z,4.50
2023-04-21T05:50:28.709Z,5.15
2023-04-21T05:55:35.732Z,5.47
2023-04-21T06:00:39.078Z,5.68
2023-04-21T06:05:42.353Z,5.47
2023-04-21T06:10:47.266Z,5.45
2023-04-21T06:15:50.556Z,6.30
2023-04-21T06:20:54.967Z,5.97
2023-04-21T06:26:04.986Z,5.57
2023-04-21T06:31:09.948Z,5.53
2023-04-21T06:36:13.420Z,4.65
2023-04-21T06:41:18.872Z,4.43
2023-04-21T06:46:22.324Z,4.22
2023-04-21T06:51:25.661Z,4.50
2023-04-21T06:56:30.580Z,3.97
2023-04-21T07:01:33.941Z,3.15
2023-04-21T07:06:37.386Z,3.05
2023-04-21T07:11:44.137Z,3.00
2023-04-21T07:16:47.437Z,2.78
2023-04-21T07:21:50.905Z,3.63
2023-04-21T07:26:55.485Z,2.75
2023-04-21T07:31:59.560Z,3.17
2023-04-21T07:37:02.948Z,2.72
2023-04-21T07:42:08.477Z,3.20
2023-04-21T07:47:11.723Z,2.80
2023-04-21T07:52:14.987Z,2.67
2023-04-21T07:57:19.666Z,2.90
2023-04-21T08:02:23.627Z,3.03
2023-04-21T08:07:26.957Z,3.10
2023-04-21T08:12:31.609Z,2.60
2023-04-21T08:17:35.041Z,2.70
2023-04-21T08:22:38.466Z,2.70
2023-04-21T08:27:43.955Z,2.70
2023-04-21T08:32:47.315Z,2.58
2023-04-21T08:37:51.602Z,2.47
2023-04-21T08:42:58.824Z,2.30
2023-04-21T08:48:04.642Z,2.13
2023-04-21T08:53:07.979Z,2.42
2023-04-21T08:58:13.651Z,3.10
2023-04-21T09:03:26.205Z,2.50
2023-04-21T09:08:30.866Z,2.15
2023-04-21T09:13:37.075Z,2.40
2023-04-21T09:18:40.729Z,2.30
2023-04-21T09:23:45.354Z,2.67
2023-04-21T09:28:51.468Z,2.78
2023-04-21T09:33:59.327Z,2.28
2023-04-21T09:44:13.490Z,1.95
2023-04-21T09:49:19.166Z,2.05
2023-04-21T09:59:35.323Z,1.60
2023-04-21T10:04:39.610Z,2.33
2023-04-21T10:09:47.311Z,2.10
2023-04-21T10:14:54.186Z,2.00
2023-04-21T10:19:59.355Z,2.13
2023-04-21T10:25:04.461Z,2.20
2023-04-21T10:30:22.850Z,2.10
2023-04-21T10:35:26.414Z,2.15
2023-04-21T10:45:47.192Z,2.40
2023-04-21T10:50:50.346Z,2.00
2023-04-21T10:55:54.458Z,1.60
2023-04-21T11:00:59.286Z,1.50
2023-04-21T11:06:15.939Z,1.58
2023-04-21T11:11:24.307Z,1.75
2023-04-21T11:16:29.078Z,1.58
2023-04-21T11:21:33.651Z,1.70
2023-04-21T11:26:38.549Z,1.48
2023-04-21T11:31:45.539Z,2.00
2023-04-21T11:36:49.529Z,1.42
2023-04-21T11:41:53.596Z,1.90
2023-04-21T11:46:58.621Z,1.83
2023-04-21T11:52:02.217Z,1.92
2023-04-21T11:57:06.355Z,1.63
2023-04-21T12:02:15.060Z,1.42
2023-04-21T12:07:24.307Z,1.50
2023-04-21T12:12:28.363Z,1.52
2023-04-21T12:17:38.992Z,1.70
2023-04-21T12:22:42.626Z,1.50
2023-04-21T12:27:52.545Z,1.50
2023-04-21T12:32:57.620Z,1.33
2023-04-21T12:38:01.305Z,1.60
2023-04-21T12:43:04.842Z,1.45
2023-04-21T12:48:09.853Z,1.45
2023-04-21T12:53:13.377Z,1.67
2023-04-21T12:58:17.060Z,1.70
2023-04-21T13:03:22.547Z,1.85
2023-04-21T13:08:26.369Z,1.50
2023-04-21T13:13:29.967Z,1.70
2023-04-21T13:18:36.033Z,1.40
2023-04-21T13:23:39.566Z,1.50
2023-04-21T13:28:43.116Z,1.50
2023-04-21T13:33:48.058Z,1.50
2023-04-21T13:38:53.993Z,1.55
2023-04-21T13:43:57.601Z,1.58
2023-04-21T13:49:02.593Z,1.38
2023-04-21T13:54:06.285Z,2.00
2023-04-21T13:59:10.931Z,1.77
2023-04-21T14:04:16.005Z,1.45
2023-04-21T14:09:20.127Z,1.58
2023-04-21T14:14:35.520Z,1.77
2023-04-21T14:19:43.227Z,1.83
2023-04-21T14:24:46.833Z,1.35
2023-04-21T14:29:50.457Z,2.30
2023-04-21T14:34:58.535Z,1.63
2023-04-21T14:40:03.955Z,1.38
2023-04-21T14:45:08.013Z,1.55
2023-04-21T14:50:13.055Z,1.38
2023-04-21T14:55:16.835Z,1.58
2023-04-21T15:00:23.213Z,1.55
2023-04-21T15:05:28.346Z,1.67
2023-04-21T15:10:32.495Z,1.80
2023-04-21T15:15:36.043Z,1.83
2023-04-21T15:20:45.609Z,2.20
2023-04-21T15:25:49.543Z,1.80
2023-04-21T15:30:53.252Z,1.83
2023-04-21T15:35:58.139Z,1.92
2023-04-21T15:41:01.843Z,1.77
2023-04-21T15:46:13.287Z,2.05
2023-04-21T15:51:18.490Z,1.90
2023-04-21T15:56:22.281Z,1.95
2023-04-21T16:01:26.160Z,1.58
2023-04-21T16:06:31.878Z,1.65
2023-04-21T16:11:35.640Z,2.38
2023-04-21T16:16:39.553Z,1.70
2023-04-21T16:21:45.042Z,2.03
2023-04-21T16:26:48.584Z,1.85
2023-04-21T16:31:52.867Z,1.80
2023-04-21T16:36:57.741Z,1.95
2023-04-21T16:42:01.290Z,1.65
2023-04-21T16:47:04.999Z,1.90
2023-04-21T16:52:11.260Z,2.03
2023-04-21T16:57:14.975Z,1.80
2023-04-21T17:02:18.643Z,1.88
2023-04-21T17:07:23.609Z,1.80
2023-04-21T17:12:27.151Z,2.40
2023-04-21T17:17:34.291Z,1.88
2023-04-21T17:22:39.329Z,1.83
2023-04-21T17:27:43.256Z,1.90
2023-04-21T17:32:46.831Z,2.22
2023-04-21T17:37:51.850Z,1.80
2023-04-21T17:42:55.630Z,2.10
2023-04-21T17:47:59.348Z,1.73
2023-04-21T17:53:04.433Z,1.80
2023-04-21T17:58:10.870Z,2.38
2023-04-21T18:03:16.943Z,2.70
2023-04-21T18:08:22.589Z,3.35
2023-04-21T18:13:26.539Z,3.13
2023-04-21T18:18:30.610Z,2.83
2023-04-21T18:23:36.837Z,3.42
2023-04-21T18:28:40.376Z,3.00
2023-04-21T18:33:44.204Z,3.17
2023-04-21T18:38:49.560Z,3.22
2023-04-21T18:43:53.014Z,3.40
2023-04-21T18:48:56.624Z,3.10
2023-04-21T18:54:01.815Z,3.30
2023-04-21T18:59:05.618Z,3.47
2023-04-21T19:04:10.714Z,3.10
2023-04-21T19:09:15.961Z,3.05
2023-04-21T19:14:19.693Z,2.97
2023-04-21T19:19:25.584Z,2.92
2023-04-21T19:24:31.541Z,3.13
2023-04-21T19:29:37.590Z,2.83
2023-04-21T19:34:41.589Z,3.45
2023-04-21T19:39:47.938Z,3.47
2023-04-21T19:44:51.603Z,3.60
2023-04-21T19:49:55.668Z,3.65
2023-04-21T19:55:00.981Z,3.92
2023-04-21T20:00:09.957Z,3.80
2023-04-21T20:05:15.998Z,3.33
2023-04-21T20:10:21.539Z,3.92
2023-04-21T20:15:27.032Z,3.95
2023-04-21T20:20:31.261Z,4.03
2023-04-21T20:25:36.555Z,3.53
2023-04-21T20:30:40.139Z,3.83
2023-04-21T20:35:46.072Z,3.55
2023-04-21T20:40:53.836Z,4.00
2023-04-21T20:45:57.583Z,3.90
2023-04-21T20:51:01.175Z,4.30
2023-04-21T20:56:06.228Z,4.28
2023-04-21T21:01:09.648Z,4.10
2023-04-21T21:06:13.141Z,4.88
2023-04-21T21:11:17.718Z,4.22
2023-04-21T21:16:21.088Z,4.25
2023-04-21T21:21:25.641Z,4.57
2023-04-21T21:26:31.123Z,4.72
2023-04-21T21:31:34.380Z,4.57
2023-04-21T21:36:37.778Z,4.40
2023-04-21T21:41:42.428Z,4.70
2023-04-21T21:46:46.000Z,4.50
2023-04-21T21:51:49.833Z,5.50
2023-04-21T21:56:54.860Z,4.80
2023-04-21T22:01:58.309Z,4.28
2023-04-21T22:07:01.795Z,7.27
2023-04-21T22:12:07.849Z,5.13
2023-04-21T22:17:11.927Z,5.15
2023-04-21T22:22:15.188Z,4.50
2023-04-21T22:27:20.694Z,4.43
2023-04-21T22:32:24.273Z,4.40
2023-04-21T22:37:27.692Z,3.78
2023-04-21T22:42:32.380Z,3.97
2023-04-21T22:47:35.956Z,4.32
2023-04-21T22:52:39.215Z,3.92
2023-04-21T22:57:44.280Z,3.72
2023-04-21T23:02:47.785Z,4.20
2023-04-21T23:07:51.482Z,3.80
2023-04-21T23:12:56.294Z,4.25
2023-04-21T23:17:59.620Z,4.07
2023-04-21T23:23:03.026Z,4.70
2023-04-21T23:28:07.705Z,4.43
2023-04-21T23:33:11.115Z,3.70
2023-04-21T23:38:14.481Z,3.95
2023-04-21T23:43:19.113Z,3.47
2023-04-21T23:48:22.263Z,3.75
2023-04-21T23:53:25.740Z,3.70
2023-04-21T23:58:30.376Z,3.17
